createdAt,value
2022-12-31T00:00:19.593Z,12.87
2022-12-31T00:02:46.571Z,12.91
2022-12-31T00:05:14.648Z,12.90
2022-12-31T00:10:07.947Z,12.91
2022-12-31T00:12:34.709Z,13.05
2022-12-31T00:15:01.701Z,12.88
2022-12-31T00:17:28.575Z,13.04
2022-12-31T00:19:55.389Z,13.02
2022-12-31T00:22:22.224Z,13.13
2022-12-31T00:24:49.072Z,13.24
2022-12-31T00:27:16.729Z,13.28
2022-12-31T00:29:43.586Z,13.39
2022-12-31T00:32:10.551Z,13.31
2022-12-31T00:34:37.342Z,13.35
2022-12-31T00:37:04.203Z,13.37
2022-12-31T00:39:30.993Z,13.51
2022-12-31T00:41:57.780Z,13.52
2022-12-31T00:44:24.674Z,13.46
2022-12-31T00:46:51.501Z,13.47
2022-12-31T00:49:18.347Z,13.53
2022-12-31T00:51:46.615Z,13.59
2022-12-31T00:54:14.120Z,13.66
2022-12-31T00:56:40.871Z,13.68
2022-12-31T00:59:07.666Z,13.71
2022-12-31T01:01:38.455Z,13.73
2022-12-31T01:04:16.548Z,13.69
2022-12-31T01:06:44.093Z,13.70
2022-12-31T01:09:12.860Z,13.75
2022-12-31T01:11:39.666Z,13.81
2022-12-31T01:14:13.615Z,13.80
2022-12-31T01:16:48.702Z,13.85
2022-12-31T01:19:23.222Z,13.83
2022-12-31T01:21:51.402Z,13.81
2022-12-31T01:24:18.829Z,13.80
2022-12-31T01:26:46.571Z,13.73
2022-12-31T01:29:14.461Z,13.70
2022-12-31T01:31:41.641Z,13.85
2022-12-31T01:34:08.533Z,13.74
2022-12-31T01:36:38.115Z,13.80
2022-12-31T01:39:08.051Z,13.91
2022-12-31T01:41:40.066Z,13.93
2022-12-31T01:44:30.060Z,13.83
2022-12-31T01:47:00.996Z,13.95
2022-12-31T01:49:45.857Z,13.95
2022-12-31T01:52:31.435Z,13.92
2022-12-31T01:55:20.017Z,13.90
2022-12-31T01:57:50.226Z,13.72
2022-12-31T02:00:17.702Z,13.89
2022-12-31T02:02:45.027Z,13.85
2022-12-31T02:05:25.510Z,13.94
2022-12-31T02:07:54.504Z,13.89
2022-12-31T02:10:21.412Z,13.91
2022-12-31T02:12:48.811Z,13.68
2022-12-31T02:15:16.104Z,13.80
2022-12-31T02:17:54.911Z,13.81
2022-12-31T02:21:15.730Z,13.85
2022-12-31T02:24:04.433Z,13.81
2022-12-31T02:26:56.105Z,14.00
2022-12-31T02:29:48.485Z,13.98
2022-12-31T02:32:39.275Z,14.00
2022-12-31T02:35:16.307Z,13.96
2022-12-31T02:37:48.298Z,13.87
2022-12-31T02:40:19.210Z,13.77
2022-12-31T02:42:51.524Z,13.81
2022-12-31T02:45:39.312Z,13.85
2022-12-31T02:48:40.891Z,13.87
2022-12-31T02:51:38.008Z,13.99
2022-12-31T02:54:18.627Z,14.00
2022-12-31T02:57:12.079Z,14.03
2022-12-31T03:00:22.451Z,14.00
2022-12-31T03:02:51.545Z,13.99
2022-12-31T03:05:23.534Z,14.00
2022-12-31T03:07:50.734Z,13.93
2022-12-31T03:10:17.587Z,13.93
2022-12-31T03:12:48.318Z,14.06
2022-12-31T03:15:31.932Z,13.98
2022-12-31T03:18:05.234Z,14.09
2022-12-31T03:20:59.067Z,14.08
2022-12-31T03:23:31.668Z,14.23
2022-12-31T03:25:59.886Z,14.22
2022-12-31T03:28:30.195Z,14.25
2022-12-31T03:31:01.533Z,14.24
2022-12-31T03:33:46.575Z,14.21
2022-12-31T03:36:15.201Z,14.27
2022-12-31T03:38:42.292Z,14.27
2022-12-31T03:41:11.566Z,14.22
2022-12-31T03:43:38.566Z,14.28
2022-12-31T03:46:05.543Z,14.33
2022-12-31T03:48:32.401Z,14.32
2022-12-31T03:50:59.156Z,14.38
2022-12-31T03:53:26.087Z,14.39
2022-12-31T03:55:53.684Z,14.28
2022-12-31T03:58:21.665Z,14.37
2022-12-31T04:00:48.503Z,14.24
2022-12-31T04:03:15.345Z,14.32
2022-12-31T04:05:42.189Z,14.33
2022-12-31T04:08:08.942Z,14.37
2022-12-31T04:10:35.784Z,14.33
2022-12-31T04:13:04.621Z,14.29
2022-12-31T04:15:31.747Z,14.27
2022-12-31T04:17:58.516Z,14.26
2022-12-31T04:20:25.365Z,14.20
2022-12-31T04:22:52.172Z,14.30
2022-12-31T04:25:19.022Z,14.37
2022-12-31T04:27:45.779Z,14.38
2022-12-31T04:30:13.522Z,14.43
2022-12-31T04:32:40.494Z,14.42
2022-12-31T04:35:08.409Z,14.50
2022-12-31T04:37:35.205Z,14.55
2022-12-31T04:40:06.286Z,14.59
2022-12-31T04:42:34.847Z,14.74
2022-12-31T04:45:01.725Z,14.88
2022-12-31T04:47:28.548Z,14.80
2022-12-31T04:49:55.500Z,14.75
2022-12-31T04:52:22.856Z,14.88
2022-12-31T04:54:49.709Z,14.89
2022-12-31T04:57:16.767Z,14.85
2022-12-31T04:59:43.596Z,14.86
2022-12-31T05:02:10.500Z,14.79
2022-12-31T05:04:37.414Z,14.98
2022-12-31T05:07:04.324Z,15.12
2022-12-31T05:09:31.228Z,15.11
2022-12-31T05:11:58.221Z,15.07
2022-12-31T05:14:25.312Z,15.13
2022-12-31T05:16:52.519Z,14.99
2022-12-31T05:19:19.386Z,15.16
2022-12-31T05:22:06.095Z,15.12
2022-12-31T05:24:32.873Z,15.12
2022-12-31T05:26:59.992Z,15.09
2022-12-31T05:29:26.947Z,15.11
2022-12-31T05:31:53.813Z,14.95
2022-12-31T05:34:20.705Z,15.14
2022-12-31T05:36:47.471Z,15.10
2022-12-31T05:39:14.302Z,15.21
2022-12-31T05:41:41.054Z,15.15
2022-12-31T05:44:07.801Z,15.24
2022-12-31T05:46:34.601Z,15.17
2022-12-31T05:49:01.369Z,15.14
2022-12-31T05:51:28.131Z,15.06
2022-12-31T05:53:54.997Z,15.02
2022-12-31T05:56:21.808Z,14.93
2022-12-31T05:58:48.559Z,14.96
2022-12-31T06:01:15.447Z,14.91
2022-12-31T06:03:42.385Z,14.89
2022-12-31T06:06:09.221Z,14.88
2022-12-31T06:08:35.998Z,14.85
2022-12-31T06:11:03.064Z,14.80
2022-12-31T06:13:29.893Z,14.82
2022-12-31T06:15:56.867Z,14.80
2022-12-31T06:18:23.667Z,14.78
2022-12-31T06:20:50.485Z,14.78
2022-12-31T06:23:17.234Z,14.73
2022-12-31T06:25:44.125Z,14.73
2022-12-31T06:28:16.163Z,14.74
2022-12-31T06:30:47.185Z,14.72
2022-12-31T06:33:14.172Z,14.78
2022-12-31T06:35:41.000Z,14.73
2022-12-31T06:38:07.804Z,14.73
2022-12-31T06:40:37.610Z,14.71
2022-12-31T06:43:04.433Z,14.78
2022-12-31T06:45:31.309Z,14.78
2022-12-31T06:47:58.068Z,14.79
2022-12-31T06:50:24.819Z,14.77
2022-12-31T06:52:51.602Z,14.71
2022-12-31T06:55:18.679Z,14.66
2022-12-31T06:57:45.884Z,14.75
2022-12-31T07:00:13.680Z,14.94
2022-12-31T07:03:16.331Z,14.83
2022-12-31T07:06:01.619Z,14.82
2022-12-31T07:09:09.968Z,14.85
2022-12-31T07:11:56.326Z,14.87
2022-12-31T07:14:41.839Z,14.90
2022-12-31T07:17:29.042Z,14.82
2022-12-31T07:20:01.272Z,14.83
2022-12-31T07:22:28.366Z,14.80
2022-12-31T07:24:55.544Z,14.70
2022-12-31T07:27:50.086Z,14.74
2022-12-31T07:30:46.789Z,14.68
2022-12-31T07:33:46.824Z,14.69
2022-12-31T07:37:16.995Z,14.64
2022-12-31T07:40:04.334Z,14.64
2022-12-31T07:42:44.599Z,14.63
2022-12-31T07:45:25.165Z,14.60
2022-12-31T07:47:54.296Z,14.62
2022-12-31T07:50:24.810Z,14.61
2022-12-31T07:52:51.970Z,14.61
2022-12-31T07:55:18.807Z,14.61
2022-12-31T07:58:06.819Z,14.63
2022-12-31T08:00:33.940Z,14.68
2022-12-31T08:03:34.210Z,14.59
2022-12-31T08:06:12.425Z,14.62
2022-12-31T08:08:44.163Z,14.60
2022-12-31T08:11:34.409Z,14.57
2022-12-31T08:14:02.719Z,14.59
2022-12-31T08:16:30.504Z,14.57
2022-12-31T08:18:57.744Z,14.57
2022-12-31T08:21:57.762Z,14.59
2022-12-31T08:24:54.741Z,14.59
2022-12-31T08:27:48.594Z,14.61
2022-12-31T08:30:19.408Z,14.64
2022-12-31T08:32:58.121Z,14.69
2022-12-31T08:36:13.472Z,14.66
2022-12-31T08:39:03.416Z,14.74
2022-12-31T08:41:45.972Z,14.67
2022-12-31T08:44:24.499Z,14.72
2022-12-31T08:47:00.171Z,14.72
2022-12-31T08:49:31.121Z,14.89
2022-12-31T08:51:59.837Z,14.87
2022-12-31T08:54:27.224Z,14.85
2022-12-31T08:57:20.788Z,14.84
2022-12-31T08:59:53.427Z,14.81
2022-12-31T09:02:48.171Z,14.85
2022-12-31T09:05:22.748Z,14.57
2022-12-31T09:07:58.482Z,14.82
2022-12-31T09:10:53.293Z,14.82
2022-12-31T09:13:43.567Z,14.79
2022-12-31T09:16:28.413Z,14.94
2022-12-31T09:18:55.292Z,14.95
2022-12-31T09:21:22.316Z,14.96
2022-12-31T09:23:49.668Z,14.95
2022-12-31T09:26:40.722Z,15.06
2022-12-31T09:29:29.377Z,15.05
2022-12-31T09:32:11.982Z,15.11
2022-12-31T09:35:29.934Z,15.23
2022-12-31T09:38:11.259Z,15.21
2022-12-31T09:41:16.719Z,15.31
2022-12-31T09:44:52.976Z,15.37
2022-12-31T09:48:29.663Z,15.48
2022-12-31T09:51:05.644Z,15.60
2022-12-31T09:53:42.712Z,15.63
2022-12-31T09:56:46.012Z,15.74
2022-12-31T09:59:33.137Z,15.86
2022-12-31T10:02:24.263Z,15.74
2022-12-31T10:05:28.698Z,15.72
2022-12-31T10:08:12.110Z,15.75
2022-12-31T10:11:12.399Z,15.78
2022-12-31T10:13:39.134Z,15.85
2022-12-31T10:16:24.981Z,15.89
2022-12-31T10:19:43.762Z,15.89
2022-12-31T10:22:46.820Z,15.89
2022-12-31T10:25:38.943Z,15.86
2022-12-31T10:28:39.025Z,16.06
2022-12-31T10:31:46.363Z,16.09
2022-12-31T10:34:51.668Z,16.08
2022-12-31T10:37:28.873Z,16.13
2022-12-31T10:40:39.236Z,16.16
2022-12-31T10:43:49.068Z,16.25
2022-12-31T10:46:38.174Z,16.30
2022-12-31T10:49:47.850Z,16.30
2022-12-31T10:52:41.689Z,16.43
2022-12-31T10:55:38.702Z,16.54
2022-12-31T10:58:53.046Z,16.54
2022-12-31T11:01:56.579Z,16.62
2022-12-31T11:04:53.514Z,16.75
2022-12-31T11:08:02.644Z,16.87
2022-12-31T11:11:08.646Z,16.91
2022-12-31T11:14:26.658Z,16.99
2022-12-31T11:17:34.466Z,17.05
2022-12-31T11:20:33.199Z,17.06
2022-12-31T11:23:48.143Z,17.17
2022-12-31T11:26:36.415Z,17.23
2022-12-31T11:29:30.815Z,17.36
2022-12-31T11:32:18.906Z,17.42
2022-12-31T11:34:48.683Z,17.38
2022-12-31T11:37:31.723Z,17.35
2022-12-31T11:40:31.510Z,17.47
2022-12-31T11:43:05.018Z,17.51
2022-12-31T11:46:01.011Z,17.66
2022-12-31T11:49:18.995Z,17.75
2022-12-31T11:52:21.630Z,17.67
2022-12-31T11:55:04.897Z,17.62
2022-12-31T11:57:38.416Z,17.73
2022-12-31T12:00:21.317Z,17.70
2022-12-31T12:02:51.135Z,17.68
2022-12-31T12:05:23.301Z,17.69
2022-12-31T12:07:52.553Z,17.77
2022-12-31T12:10:38.320Z,17.74
2022-12-31T12:13:23.253Z,17.89
2022-12-31T12:16:02.914Z,17.88
2022-12-31T12:18:45.112Z,17.82
2022-12-31T12:21:24.217Z,17.97
2022-12-31T12:24:03.846Z,17.88
2022-12-31T12:26:41.566Z,17.84
2022-12-31T12:29:22.312Z,17.89
2022-12-31T12:32:24.950Z,17.93
2022-12-31T12:34:52.744Z,17.94
2022-12-31T12:37:30.090Z,17.97
2022-12-31T12:40:33.362Z,17.95
2022-12-31T12:43:02.378Z,17.93
2022-12-31T12:45:51.746Z,18.00
2022-12-31T12:48:40.304Z,18.10
2022-12-31T12:51:39.545Z,18.09
2022-12-31T12:54:51.952Z,18.28
2022-12-31T12:57:48.890Z,18.16
2022-12-31T13:00:22.223Z,18.27
2022-12-31T13:03:34.520Z,18.20
2022-12-31T13:06:24.454Z,18.20
2022-12-31T13:09:35.615Z,18.12
2022-12-31T13:12:42.788Z,18.16
2022-12-31T13:15:38.910Z,18.14
2022-12-31T13:18:25.040Z,18.33
2022-12-31T13:21:22.912Z,18.27
2022-12-31T13:24:05.178Z,18.29
2022-12-31T13:26:40.500Z,18.21
2022-12-31T13:29:19.718Z,18.21
2022-12-31T13:31:48.965Z,18.13
2022-12-31T13:34:25.199Z,18.13
2022-12-31T13:36:54.393Z,18.04
2022-12-31T13:39:27.588Z,18.07
2022-12-31T13:42:21.919Z,18.00
2022-12-31T13:44:56.441Z,18.03
2022-12-31T13:47:46.917Z,18.01
2022-12-31T13:50:31.682Z,18.03
2022-12-31T13:53:07.516Z,17.93
2022-12-31T13:55:42.521Z,17.88
2022-12-31T13:58:31.492Z,17.92
2022-12-31T14:01:16.340Z,17.88
2022-12-31T14:04:09.308Z,17.80
2022-12-31T14:07:14.490Z,17.77
2022-12-31T14:09:42.358Z,17.77
2022-12-31T14:13:05.456Z,17.77
2022-12-31T14:15:43.114Z,17.63
2022-12-31T14:18:32.484Z,17.59
2022-12-31T14:21:22.755Z,17.64
2022-12-31T14:24:18.793Z,17.61
2022-12-31T14:26:52.768Z,17.60
2022-12-31T14:29:34.087Z,17.68
2022-12-31T14:32:31.034Z,17.80
2022-12-31T14:35:54.125Z,17.86
2022-12-31T14:38:47.404Z,17.83
2022-12-31T14:41:48.144Z,17.93
2022-12-31T14:44:36.377Z,17.84
2022-12-31T14:47:11.980Z,17.99
2022-12-31T14:49:53.356Z,18.07
2022-12-31T14:52:31.936Z,18.01
2022-12-31T14:55:25.135Z,17.82
2022-12-31T14:58:26.363Z,17.73
2022-12-31T15:00:52.360Z,17.55
2022-12-31T15:03:23.336Z,17.62
2022-12-31T15:06:22.494Z,17.56
2022-12-31T15:09:39.339Z,17.39
2022-12-31T15:12:59.814Z,17.23
2022-12-31T15:15:53.115Z,17.13
2022-12-31T15:18:44.881Z,17.07
2022-12-31T15:21:34.800Z,17.10
2022-12-31T15:24:02.397Z,17.13
2022-12-31T15:26:31.768Z,17.08
2022-12-31T15:29:01.417Z,17.05
2022-12-31T15:31:29.163Z,16.97
2022-12-31T15:34:01.810Z,17.00
2022-12-31T15:36:34.452Z,16.96
2022-12-31T15:39:10.351Z,16.94
2022-12-31T15:42:27.600Z,16.92
2022-12-31T15:44:48.448Z,16.92
2022-12-31T15:47:41.837Z,16.84
2022-12-31T15:50:17.925Z,17.02
2022-12-31T15:53:03.664Z,17.08
2022-12-31T15:55:37.816Z,17.32
2022-12-31T15:58:11.225Z,17.40
2022-12-31T16:01:19.685Z,17.30
2022-12-31T16:04:25.482Z,17.41
2022-12-31T16:06:53.000Z,17.44
2022-12-31T16:09:25.662Z,17.37
2022-12-31T16:11:54.858Z,17.19
2022-12-31T16:14:44.217Z,17.26
2022-12-31T16:17:33.119Z,17.39
2022-12-31T16:20:02.190Z,17.30
2022-12-31T16:22:37.932Z,17.42
2022-12-31T16:27:54.982Z,17.25
2022-12-31T16:30:25.714Z,17.00
2022-12-31T16:32:56.382Z,16.90
2022-12-31T16:35:36.442Z,16.61
2022-12-31T16:38:18.747Z,16.55
2022-12-31T16:41:03.772Z,16.37
2022-12-31T16:43:43.106Z,16.37
2022-12-31T16:46:27.026Z,16.34
2022-12-31T16:49:00.827Z,16.11
2022-12-31T16:51:34.214Z,16.20
2022-12-31T16:54:02.439Z,16.09
2022-12-31T16:56:41.705Z,15.99
2022-12-31T16:59:24.144Z,15.88
2022-12-31T17:01:55.916Z,15.71
2022-12-31T17:04:24.036Z,15.72
2022-12-31T17:06:51.018Z,15.63
2022-12-31T17:09:21.850Z,15.57
2022-12-31T17:11:56.179Z,15.52
2022-12-31T17:14:30.431Z,15.41
2022-12-31T17:17:03.558Z,15.38
2022-12-31T17:19:56.491Z,15.31
2022-12-31T17:22:36.240Z,15.29
2022-12-31T17:25:30.269Z,15.21
2022-12-31T17:28:06.857Z,15.14
2022-12-31T17:30:34.530Z,15.01
2022-12-31T17:33:07.424Z,14.97
2022-12-31T17:35:37.287Z,14.82
2022-12-31T17:38:22.258Z,14.88
2022-12-31T17:40:55.653Z,14.76
2022-12-31T17:43:23.950Z,14.83
2022-12-31T17:45:52.775Z,14.76
2022-12-31T17:48:20.512Z,14.76
2022-12-31T17:50:56.915Z,14.68
2022-12-31T17:53:24.141Z,14.61
2022-12-31T17:55:57.372Z,14.51
2022-12-31T17:58:42.662Z,14.53
2022-12-31T18:01:10.337Z,14.48
2022-12-31T18:03:37.216Z,14.44
2022-12-31T18:06:05.317Z,14.38
2022-12-31T18:08:32.228Z,14.35
2022-12-31T18:10:59.022Z,14.18
2022-12-31T18:13:27.707Z,14.26
2022-12-31T18:15:55.226Z,14.22
2022-12-31T18:18:30.084Z,14.18
2022-12-31T18:21:06.647Z,14.15
2022-12-31T18:23:41.829Z,14.07
2022-12-31T18:26:18.399Z,14.04
2022-12-31T18:28:46.141Z,13.99
2022-12-31T18:31:25.268Z,13.95
2022-12-31T18:33:53.775Z,13.93
2022-12-31T18:36:21.839Z,13.89
2022-12-31T18:38:48.916Z,13.86
2022-12-31T18:41:27.779Z,13.84
2022-12-31T18:43:55.781Z,13.83
2022-12-31T18:46:24.632Z,13.79
2022-12-31T18:48:51.478Z,13.76
2022-12-31T18:51:25.135Z,13.73
2022-12-31T18:53:56.597Z,13.71
2022-12-31T18:56:25.115Z,13.48
2022-12-31T18:58:52.042Z,13.68
2022-12-31T19:01:34.691Z,13.67
2022-12-31T19:04:05.135Z,13.68
2022-12-31T19:06:32.012Z,13.65
2022-12-31T19:09:00.823Z,13.61
2022-12-31T19:11:29.053Z,13.57
2022-12-31T19:13:55.826Z,13.54
2022-12-31T19:16:22.650Z,13.48
2022-12-31T19:18:50.675Z,13.46
2022-12-31T19:21:22.346Z,13.45
2022-12-31T19:23:50.518Z,13.39
2022-12-31T19:26:20.367Z,13.36
2022-12-31T19:28:48.752Z,13.30
2022-12-31T19:31:16.446Z,13.27
2022-12-31T19:33:44.255Z,13.16
2022-12-31T19:36:19.476Z,13.09
2022-12-31T19:38:47.295Z,13.15
2022-12-31T19:41:19.863Z,13.10
2022-12-31T19:43:47.993Z,13.05
2022-12-31T19:46:17.789Z,12.90
2022-12-31T19:48:45.241Z,12.88
2022-12-31T19:51:17.402Z,12.90
2022-12-31T19:53:45.708Z,12.88
2022-12-31T19:56:18.990Z,12.85
2022-12-31T19:58:46.251Z,12.88
2022-12-31T20:01:20.930Z,12.65
2022-12-31T20:03:48.232Z,12.85
2022-12-31T20:06:15.636Z,12.81
2022-12-31T20:08:46.433Z,12.70
2022-12-31T20:11:20.163Z,12.81
2022-12-31T20:13:49.418Z,12.77
2022-12-31T20:16:19.019Z,12.74
2022-12-31T20:18:47.867Z,12.71
2022-12-31T20:21:19.392Z,12.71
2022-12-31T20:23:48.563Z,12.71
2022-12-31T20:26:15.387Z,12.70
2022-12-31T20:28:42.187Z,12.65
2022-12-31T20:31:19.163Z,12.68
2022-12-31T20:33:46.070Z,12.67
2022-12-31T20:36:15.908Z,12.62
2022-12-31T20:38:43.159Z,12.58
2022-12-31T20:41:15.993Z,12.59
2022-12-31T20:43:43.337Z,12.60
2022-12-31T20:46:18.962Z,12.58
2022-12-31T20:48:47.894Z,12.57
2022-12-31T20:51:16.802Z,12.43
2022-12-31T20:53:52.006Z,12.54
2022-12-31T20:56:19.190Z,12.47
2022-12-31T20:58:46.081Z,12.48
2022-12-31T21:01:14.214Z,12.49
2022-12-31T21:06:31.389Z,12.13
2022-12-31T21:09:00.780Z,12.38
2022-12-31T21:11:46.573Z,12.43
2022-12-31T21:14:13.458Z,12.40
2022-12-31T21:16:40.343Z,12.38
2022-12-31T21:19:07.241Z,12.35
2022-12-31T21:21:34.062Z,12.35
2022-12-31T21:24:00.884Z,12.33
2022-12-31T21:26:28.910Z,12.30
2022-12-31T21:28:55.683Z,12.25
2022-12-31T21:31:22.611Z,12.24
2022-12-31T21:33:49.521Z,12.25
2022-12-31T21:36:16.758Z,12.24
2022-12-31T21:38:44.113Z,12.22
2022-12-31T21:41:35.052Z,12.22
2022-12-31T21:44:03.132Z,12.22
2022-12-31T21:46:30.381Z,12.20
2022-12-31T21:48:59.508Z,12.20
2022-12-31T21:51:27.279Z,12.20
2022-12-31T21:53:54.434Z,12.17
2022-12-31T21:56:22.466Z,12.04
2022-12-31T21:59:16.856Z,12.11
2022-12-31T22:02:02.422Z,12.09
2022-12-31T22:05:01.384Z,12.04
2022-12-31T22:07:16.226Z,12.00
2022-12-31T22:09:43.049Z,11.98
2022-12-31T22:12:09.842Z,12.02
2022-12-31T22:14:36.728Z,11.98
2022-12-31T22:17:03.614Z,11.97
2022-12-31T22:19:30.492Z,11.89
2022-12-31T22:21:57.326Z,11.92
2022-12-31T22:24:24.082Z,11.88
2022-12-31T22:26:52.075Z,11.77
2022-12-31T22:29:19.700Z,11.86
2022-12-31T22:31:46.566Z,11.81
2022-12-31T22:34:13.363Z,11.79
2022-12-31T22:36:40.515Z,11.76
2022-12-31T22:39:10.351Z,11.74
2022-12-31T22:41:37.312Z,11.73
2022-12-31T22:44:05.003Z,11.70
2022-12-31T22:46:33.523Z,11.69
2022-12-31T22:49:03.077Z,11.54
2022-12-31T22:51:55.040Z,11.64
2022-12-31T22:54:18.175Z,11.65
2022-12-31T22:56:45.046Z,11.66
2022-12-31T22:59:11.812Z,11.62
2022-12-31T23:01:38.691Z,11.63
2022-12-31T23:04:05.615Z,11.60
2022-12-31T23:06:32.772Z,11.45
2022-12-31T23:09:18.383Z,11.51
2022-12-31T23:11:45.183Z,11.46
2022-12-31T23:14:36.168Z,11.43
2022-12-31T23:17:30.776Z,11.41
2022-12-31T23:20:18.828Z,11.38
2022-12-31T23:23:05.981Z,11.35
2022-12-31T23:25:34.930Z,11.38
2022-12-31T23:28:01.834Z,11.39
2022-12-31T23:30:28.805Z,11.41
2022-12-31T23:32:55.691Z,11.41
2022-12-31T23:35:22.488Z,11.41
2022-12-31T23:37:49.541Z,11.28
2022-12-31T23:40:21.134Z,11.31
2022-12-31T23:42:49.659Z,11.33
2022-12-31T23:45:16.558Z,11.31
2022-12-31T23:47:43.499Z,11.33
2022-12-31T23:50:10.493Z,11.34
2022-12-31T23:52:37.420Z,11.33
2022-12-31T23:55:04.916Z,11.31
2022-12-31T23:57:31.851Z,11.29
2022-12-31T23:59:58.744Z,11.28
